createdAt,value
2023-09-27T00:00:30.257Z,25.28
2023-09-27T00:01:31.927Z,25.39
2023-09-27T00:02:33.763Z,25.44
2023-09-27T00:03:35.547Z,25.48
2023-09-27T00:04:37.299Z,25.07
2023-09-27T00:05:39.334Z,25.24
2023-09-27T00:06:42.331Z,25.33
2023-09-27T00:07:44.177Z,25.34
2023-09-27T00:08:46.010Z,25.39
2023-09-27T00:09:48.110Z,25.50
2023-09-27T00:10:49.934Z,25.26
2023-09-27T00:11:51.743Z,25.11
2023-09-27T00:12:53.529Z,24.91
2023-09-27T00:13:55.260Z,24.76
2023-09-27T00:14:58.288Z,24.95
2023-09-27T00:16:00.010Z,24.97
2023-09-27T00:17:02.061Z,24.88
2023-09-27T00:18:06.006Z,24.81
2023-09-27T00:19:07.732Z,24.90
2023-09-27T00:20:13.621Z,24.78
2023-09-27T00:21:15.324Z,24.90
2023-09-27T00:22:17.091Z,24.77
2023-09-27T00:23:19.420Z,24.63
2023-09-27T00:24:21.213Z,24.67
2023-09-27T00:25:23.176Z,24.89
2023-09-27T00:26:25.195Z,24.80
2023-09-27T00:27:27.457Z,24.83
2023-09-27T00:28:29.190Z,24.97
2023-09-27T00:29:30.845Z,25.15
2023-09-27T00:30:32.569Z,25.12
2023-09-27T00:31:34.332Z,24.88
2023-09-27T00:32:36.829Z,25.06
2023-09-27T00:33:38.576Z,25.17
2023-09-27T00:34:40.279Z,25.04
2023-09-27T00:35:41.912Z,25.15
2023-09-27T00:36:43.624Z,25.27
2023-09-27T00:37:45.797Z,25.08
2023-09-27T00:38:47.418Z,25.18
2023-09-27T00:39:49.036Z,25.34
2023-09-27T00:40:51.746Z,25.35
2023-09-27T00:41:53.587Z,25.46
2023-09-27T00:42:55.246Z,25.48
2023-09-27T00:43:56.942Z,25.35
2023-09-27T00:44:58.735Z,25.41
2023-09-27T00:46:07.564Z,25.43
2023-09-27T00:47:09.360Z,25.54
2023-09-27T00:48:11.165Z,25.55
2023-09-27T00:49:15.572Z,25.58
2023-09-27T00:50:17.849Z,25.34
2023-09-27T00:51:19.803Z,25.37
2023-09-27T00:52:21.637Z,25.50
2023-09-27T00:53:26.668Z,25.46
2023-09-27T00:54:29.110Z,25.42
2023-09-27T00:55:31.298Z,25.35
2023-09-27T00:56:34.071Z,25.43
2023-09-27T00:57:35.946Z,25.53
2023-09-27T00:58:38.107Z,25.49
2023-09-27T00:59:39.820Z,25.51
2023-09-27T01:00:41.489Z,25.55
2023-09-27T01:01:43.486Z,25.53
2023-09-27T01:02:45.428Z,25.55
2023-09-27T01:03:48.354Z,25.62
2023-09-27T01:04:50.136Z,25.69
2023-09-27T01:05:52.027Z,25.71
2023-09-27T01:06:53.736Z,25.76
2023-09-27T01:07:55.479Z,25.73
2023-09-27T01:08:57.118Z,25.75
2023-09-27T01:09:58.861Z,25.72
2023-09-27T01:11:02.655Z,25.75
2023-09-27T01:12:05.521Z,25.75
2023-09-27T01:13:08.577Z,25.82
2023-09-27T01:14:10.371Z,25.86
2023-09-27T01:15:12.579Z,25.83
2023-09-27T01:16:14.366Z,25.83
2023-09-27T01:17:16.112Z,25.78
2023-09-27T01:18:17.975Z,25.73
2023-09-27T01:19:20.137Z,25.73
2023-09-27T01:20:22.546Z,25.80
2023-09-27T01:21:24.935Z,25.78
2023-09-27T01:22:26.556Z,25.78
2023-09-27T01:23:29.496Z,25.71
2023-09-27T01:24:31.765Z,25.73
2023-09-27T01:25:36.198Z,25.75
2023-09-27T01:26:38.845Z,25.74
2023-09-27T01:27:41.624Z,25.70
2023-09-27T01:28:46.452Z,25.68
2023-09-27T01:29:48.107Z,25.70
2023-09-27T01:30:49.806Z,25.75
2023-09-27T01:31:51.491Z,25.77
2023-09-27T01:32:53.358Z,25.78
2023-09-27T01:33:55.077Z,25.82
2023-09-27T01:34:56.898Z,25.75
2023-09-27T01:35:58.924Z,25.77
2023-09-27T01:37:00.579Z,25.78
2023-09-27T01:38:03.506Z,25.78
2023-09-27T01:39:09.433Z,25.76
2023-09-27T01:40:11.970Z,25.80
2023-09-27T01:41:14.669Z,25.71
2023-09-27T01:42:16.619Z,25.72
2023-09-27T01:43:18.297Z,25.82
2023-09-27T01:44:20.152Z,25.83
2023-09-27T01:45:22.105Z,25.83
2023-09-27T01:46:23.975Z,25.81
2023-09-27T01:47:25.700Z,25.79
2023-09-27T01:48:27.444Z,25.78
2023-09-27T01:49:29.060Z,25.75
2023-09-27T01:50:33.660Z,25.74
2023-09-27T01:51:35.425Z,25.71
2023-09-27T01:52:37.176Z,25.74
2023-09-27T01:53:38.941Z,25.79
2023-09-27T01:54:40.568Z,25.82
2023-09-27T01:55:42.293Z,25.76
2023-09-27T01:56:43.966Z,25.71
2023-09-27T01:57:49.033Z,25.70
2023-09-27T01:58:50.990Z,25.75
2023-09-27T01:59:52.804Z,25.81
2023-09-27T02:00:54.562Z,25.78
2023-09-27T02:01:56.208Z,25.74
2023-09-27T02:03:00.056Z,25.74
2023-09-27T02:04:01.907Z,25.74
2023-09-27T02:05:03.902Z,25.75
2023-09-27T02:06:05.854Z,25.75
2023-09-27T02:07:07.607Z,25.75
2023-09-27T02:08:12.814Z,25.74
2023-09-27T02:09:15.458Z,25.73
2023-09-27T02:10:17.283Z,25.76
2023-09-27T02:11:20.666Z,25.72
2023-09-27T02:12:22.464Z,25.68
2023-09-27T02:13:24.106Z,25.68
2023-09-27T02:14:25.966Z,25.67
2023-09-27T02:15:27.712Z,25.65
2023-09-27T02:16:29.381Z,25.65
2023-09-27T02:17:31.124Z,25.60
2023-09-27T02:18:32.790Z,25.63
2023-09-27T02:19:35.572Z,25.69
2023-09-27T02:20:37.644Z,25.71
2023-09-27T02:21:40.109Z,25.67
2023-09-27T02:22:42.767Z,25.60
2023-09-27T02:23:44.460Z,25.60
2023-09-27T02:24:46.074Z,25.62
2023-09-27T02:25:57.805Z,25.59
2023-09-27T02:26:59.571Z,25.66
2023-09-27T02:28:01.217Z,25.70
2023-09-27T02:29:03.272Z,25.69
2023-09-27T02:30:07.662Z,25.73
2023-09-27T02:31:11.270Z,25.70
2023-09-27T02:32:13.024Z,25.66
2023-09-27T02:33:14.807Z,25.71
2023-09-27T02:34:18.010Z,25.77
2023-09-27T02:35:21.033Z,25.73
2023-09-27T02:36:22.712Z,25.73
2023-09-27T02:37:25.364Z,25.67
2023-09-27T02:38:27.393Z,25.62
2023-09-27T02:39:30.149Z,25.60
2023-09-27T02:40:31.780Z,25.69
2023-09-27T02:41:33.519Z,25.68
2023-09-27T02:42:35.516Z,25.62
2023-09-27T02:43:37.153Z,25.61
2023-09-27T02:44:39.273Z,25.61
2023-09-27T02:45:41.255Z,25.62
2023-09-27T02:46:42.917Z,25.65
2023-09-27T02:47:48.009Z,25.62
2023-09-27T02:48:50.139Z,25.65
2023-09-27T02:49:51.889Z,25.62
2023-09-27T02:50:56.530Z,25.65
2023-09-27T02:51:58.190Z,25.70
2023-09-27T02:53:00.003Z,25.61
2023-09-27T02:54:01.742Z,25.66
2023-09-27T02:55:03.712Z,25.69
2023-09-27T02:56:06.488Z,25.71
2023-09-27T02:57:08.464Z,25.70
2023-09-27T02:58:10.143Z,25.69
2023-09-27T02:59:12.406Z,25.72
2023-09-27T03:00:14.460Z,25.69
2023-09-27T03:01:16.300Z,25.65
2023-09-27T03:02:18.068Z,25.69
2023-09-27T03:03:20.832Z,25.73
2023-09-27T03:04:22.673Z,25.71
2023-09-27T03:05:24.882Z,25.72
2023-09-27T03:06:26.954Z,25.66
2023-09-27T03:07:28.658Z,25.69
2023-09-27T03:08:31.250Z,25.65
2023-09-27T03:09:33.039Z,25.62
2023-09-27T03:10:39.910Z,25.58
2023-09-27T03:11:43.558Z,25.66
2023-09-27T03:12:49.514Z,25.65
2023-09-27T03:13:51.163Z,25.69
2023-09-27T03:14:52.887Z,25.67
2023-09-27T03:15:58.385Z,25.69
2023-09-27T03:17:01.740Z,25.69
2023-09-27T03:18:04.541Z,25.69
2023-09-27T03:19:06.315Z,25.70
2023-09-27T03:20:10.563Z,25.72
2023-09-27T03:21:12.277Z,25.69
2023-09-27T03:22:13.932Z,25.66
2023-09-27T03:23:15.625Z,25.65
2023-09-27T03:24:17.351Z,25.57
2023-09-27T03:25:19.725Z,25.54
2023-09-27T03:26:23.753Z,25.60
2023-09-27T03:27:25.867Z,25.57
2023-09-27T03:28:27.552Z,25.58
2023-09-27T03:29:30.179Z,25.56
2023-09-27T03:30:31.788Z,25.54
2023-09-27T03:31:33.796Z,25.54
2023-09-27T03:32:36.014Z,25.52
2023-09-27T03:33:37.773Z,25.57
2023-09-27T03:34:39.814Z,25.58
2023-09-27T03:35:42.496Z,25.55
2023-09-27T03:36:45.493Z,25.59
2023-09-27T03:37:48.213Z,25.65
2023-09-27T03:38:50.882Z,25.68
2023-09-27T03:39:56.995Z,25.67
2023-09-27T03:40:58.728Z,25.59
2023-09-27T03:42:00.397Z,25.52
2023-09-27T03:43:02.079Z,25.48
2023-09-27T03:44:04.353Z,25.45
2023-09-27T03:45:06.872Z,25.46
2023-09-27T03:46:08.678Z,25.53
2023-09-27T03:47:10.410Z,25.49
2023-09-27T03:48:12.464Z,25.43
2023-09-27T03:49:14.228Z,25.47
2023-09-27T03:50:16.262Z,25.44
2023-09-27T03:51:25.621Z,25.44
2023-09-27T03:52:27.237Z,25.49
2023-09-27T03:53:29.035Z,25.53
2023-09-27T03:54:30.648Z,25.51
2023-09-27T03:55:32.331Z,25.50
2023-09-27T03:56:34.076Z,25.50
2023-09-27T03:57:36.095Z,25.40
2023-09-27T03:58:37.756Z,25.31
2023-09-27T03:59:39.398Z,25.33
2023-09-27T04:00:41.078Z,25.34
2023-09-27T04:01:43.208Z,25.33
2023-09-27T04:02:45.907Z,25.30
2023-09-27T04:03:47.809Z,25.37
2023-09-27T04:04:49.490Z,25.39
2023-09-27T04:05:51.084Z,25.48
2023-09-27T04:06:53.077Z,25.56
2023-09-27T04:08:13.198Z,25.57
2023-09-27T04:09:15.078Z,25.46
2023-09-27T04:10:18.672Z,25.46
2023-09-27T04:11:20.325Z,25.48
2023-09-27T04:12:22.000Z,25.39
2023-09-27T04:13:23.645Z,25.38
2023-09-27T04:14:25.303Z,25.40
2023-09-27T04:15:27.397Z,25.40
2023-09-27T04:16:32.080Z,25.43
2023-09-27T04:17:34.132Z,25.47
2023-09-27T04:18:37.029Z,25.49
2023-09-27T04:19:38.741Z,25.46
2023-09-27T04:20:40.483Z,25.46
2023-09-27T04:21:42.171Z,25.43
2023-09-27T04:22:51.772Z,25.45
2023-09-27T04:23:58.356Z,25.53
2023-09-27T04:25:00.857Z,25.56
2023-09-27T04:26:05.694Z,25.54
2023-09-27T04:27:07.356Z,25.53
2023-09-27T04:28:11.278Z,25.49
2023-09-27T04:29:13.030Z,25.47
2023-09-27T04:30:16.202Z,25.51
2023-09-27T04:31:18.416Z,25.55
2023-09-27T04:32:20.422Z,25.52
2023-09-27T04:33:24.381Z,25.46
2023-09-27T04:34:26.214Z,25.44
2023-09-27T04:35:27.933Z,25.43
2023-09-27T04:36:29.617Z,25.45
2023-09-27T04:37:31.459Z,25.36
2023-09-27T04:38:35.080Z,25.40
2023-09-27T04:39:36.689Z,25.37
2023-09-27T04:40:38.360Z,25.38
2023-09-27T04:41:40.026Z,25.40
2023-09-27T04:42:43.107Z,25.43
2023-09-27T04:43:47.943Z,25.41
2023-09-27T04:44:49.646Z,25.42
2023-09-27T04:45:52.966Z,25.47
2023-09-27T04:46:54.720Z,25.53
2023-09-27T04:47:56.422Z,25.49
2023-09-27T04:48:58.997Z,25.46
2023-09-27T04:50:00.682Z,25.48
2023-09-27T04:51:03.150Z,25.48
2023-09-27T04:52:04.840Z,25.45
2023-09-27T04:53:06.920Z,25.43
2023-09-27T04:54:11.521Z,25.50
2023-09-27T04:55:14.188Z,25.56
2023-09-27T04:56:16.418Z,25.63
2023-09-27T04:57:18.060Z,25.59
2023-09-27T04:58:19.727Z,25.60
2023-09-27T04:59:22.812Z,25.62
2023-09-27T05:00:26.607Z,25.62
2023-09-27T05:01:28.890Z,25.71
2023-09-27T05:02:30.968Z,25.81
2023-09-27T05:03:33.264Z,25.88
2023-09-27T05:04:35.032Z,25.90
2023-09-27T05:05:37.797Z,25.89
2023-09-27T05:06:39.435Z,25.88
2023-09-27T05:07:41.758Z,25.80
2023-09-27T05:08:43.547Z,25.85
2023-09-27T05:09:45.407Z,25.88
2023-09-27T05:10:48.040Z,25.91
2023-09-27T05:11:49.847Z,25.90
2023-09-27T05:12:51.565Z,25.92
2023-09-27T05:13:53.244Z,25.95
2023-09-27T05:14:54.869Z,26.00
2023-09-27T05:15:58.305Z,26.08
2023-09-27T05:17:00.175Z,26.05
2023-09-27T05:18:01.898Z,26.00
2023-09-27T05:19:03.654Z,25.97
2023-09-27T05:20:12.987Z,25.92
2023-09-27T05:21:17.280Z,25.93
2023-09-27T05:22:20.511Z,25.92
2023-09-27T05:23:22.244Z,25.97
2023-09-27T05:24:23.916Z,26.01
2023-09-27T05:25:25.704Z,26.02
2023-09-27T05:26:28.237Z,26.07
2023-09-27T05:27:29.875Z,25.98
2023-09-27T05:28:33.715Z,25.95
2023-09-27T05:29:36.115Z,25.94
2023-09-27T05:30:37.820Z,25.81
2023-09-27T05:31:41.518Z,25.75
2023-09-27T05:32:44.435Z,25.79
2023-09-27T05:33:46.650Z,25.69
2023-09-27T05:34:49.264Z,25.76
2023-09-27T05:35:51.496Z,25.70
2023-09-27T05:36:54.922Z,25.70
2023-09-27T05:37:57.212Z,25.73
2023-09-27T05:38:58.865Z,25.60
2023-09-27T05:40:00.622Z,25.69
2023-09-27T05:41:02.267Z,25.76
2023-09-27T05:42:05.135Z,25.76
2023-09-27T05:43:06.804Z,25.83
2023-09-27T05:44:08.476Z,25.80
2023-09-27T05:45:13.851Z,25.82
2023-09-27T05:46:15.611Z,25.83
2023-09-27T05:47:18.515Z,25.87
2023-09-27T05:48:20.285Z,25.89
2023-09-27T05:49:22.025Z,25.93
2023-09-27T05:50:24.286Z,25.51
2023-09-27T05:51:27.803Z,25.59
2023-09-27T05:52:31.835Z,25.72
2023-09-27T05:53:33.518Z,25.77
2023-09-27T05:54:35.162Z,25.76
2023-09-27T05:55:36.908Z,25.76
2023-09-27T05:56:39.469Z,25.78
2023-09-27T05:57:42.109Z,25.90
2023-09-27T05:58:44.327Z,25.94
2023-09-27T05:59:46.395Z,26.00
2023-09-27T06:00:49.230Z,26.02
2023-09-27T06:01:52.858Z,26.03
2023-09-27T06:02:55.826Z,26.05
2023-09-27T06:03:57.713Z,26.06
2023-09-27T06:05:00.455Z,26.05
2023-09-27T06:06:02.233Z,25.85
2023-09-27T06:07:05.327Z,25.85
2023-09-27T06:08:08.777Z,25.59
2023-09-27T06:09:10.815Z,25.48
2023-09-27T06:10:12.471Z,25.67
2023-09-27T06:11:14.110Z,25.82
2023-09-27T06:12:16.345Z,25.90
2023-09-27T06:13:19.078Z,25.71
2023-09-27T06:14:22.842Z,25.77
2023-09-27T06:15:24.545Z,25.68
2023-09-27T06:16:26.226Z,25.47
2023-09-27T06:17:28.566Z,25.66
2023-09-27T06:18:32.325Z,25.75
2023-09-27T06:19:34.320Z,25.83
2023-09-27T06:20:39.692Z,25.73
2023-09-27T06:21:41.651Z,25.65
2023-09-27T06:22:44.322Z,25.57
2023-09-27T06:23:46.190Z,25.68
2023-09-27T06:24:47.847Z,25.83
2023-09-27T06:25:49.494Z,25.93
2023-09-27T06:26:51.744Z,25.83
2023-09-27T06:27:54.593Z,25.82
2023-09-27T06:28:56.282Z,25.95
2023-09-27T06:29:58.543Z,25.94
2023-09-27T06:31:00.749Z,26.00
2023-09-27T06:32:02.562Z,26.02
2023-09-27T06:33:05.030Z,26.03
2023-09-27T06:34:07.380Z,25.95
2023-09-27T06:35:14.652Z,25.92
2023-09-27T06:36:17.405Z,25.88
2023-09-27T06:37:19.722Z,25.81
2023-09-27T06:38:24.391Z,25.73
2023-09-27T06:39:26.293Z,25.56
2023-09-27T06:40:30.600Z,25.43
2023-09-27T06:41:32.478Z,25.45
2023-09-27T06:42:34.184Z,25.44
2023-09-27T06:43:37.718Z,25.45
2023-09-27T06:44:41.887Z,25.51
2023-09-27T06:45:44.495Z,25.29
2023-09-27T06:46:49.120Z,25.43
2023-09-27T06:47:51.324Z,25.51
2023-09-27T06:48:54.313Z,25.36
2023-09-27T06:49:56.705Z,25.45
2023-09-27T06:50:58.320Z,25.43
2023-09-27T06:51:59.947Z,25.54
2023-09-27T06:53:15.719Z,25.44
2023-09-27T06:54:23.355Z,25.59
2023-09-27T06:55:25.280Z,25.56
2023-09-27T06:56:26.988Z,25.80
2023-09-27T06:57:28.867Z,25.86
2023-09-27T06:58:31.249Z,25.89
2023-09-27T06:59:33.298Z,25.72
2023-09-27T07:00:35.084Z,25.78
2023-09-27T07:01:36.829Z,25.85
2023-09-27T07:02:42.548Z,25.76
2023-09-27T07:03:44.460Z,25.74
2023-09-27T07:04:47.551Z,25.83
2023-09-27T07:05:49.339Z,25.74
2023-09-27T07:06:51.013Z,25.82
2023-09-27T07:07:54.376Z,25.83
2023-09-27T07:08:59.343Z,25.71
2023-09-27T07:10:01.176Z,25.41
2023-09-27T07:11:07.161Z,25.20
2023-09-27T07:12:09.552Z,24.69
2023-09-27T07:13:11.231Z,24.76
2023-09-27T07:14:18.822Z,24.95
2023-09-27T07:15:20.673Z,25.42
2023-09-27T07:16:27.867Z,25.74
2023-09-27T07:17:30.423Z,25.70
2023-09-27T07:18:32.310Z,25.76
2023-09-27T07:19:34.057Z,25.84
2023-09-27T07:20:36.163Z,25.90
2023-09-27T07:21:38.245Z,26.06
2023-09-27T07:22:39.913Z,25.92
2023-09-27T07:23:41.741Z,25.75
2023-09-27T07:24:44.097Z,25.88
2023-09-27T07:25:46.039Z,25.78
2023-09-27T07:26:50.060Z,25.85
2023-09-27T07:27:56.081Z,25.94
2023-09-27T07:28:57.787Z,26.00
2023-09-27T07:29:59.451Z,25.96
2023-09-27T07:31:01.132Z,26.01
2023-09-27T07:32:03.221Z,26.09
2023-09-27T07:33:12.699Z,26.21
2023-09-27T07:34:15.227Z,26.14
2023-09-27T07:35:18.203Z,26.17
2023-09-27T07:36:22.134Z,26.17
2023-09-27T07:37:23.874Z,26.17
2023-09-27T07:38:27.027Z,26.04
2023-09-27T07:39:28.763Z,26.08
2023-09-27T07:40:30.886Z,26.16
2023-09-27T07:41:33.221Z,25.99
2023-09-27T07:42:34.929Z,26.02
2023-09-27T07:43:38.194Z,26.12
2023-09-27T07:44:40.402Z,26.03
2023-09-27T07:45:43.848Z,26.06
2023-09-27T07:46:45.978Z,26.04
2023-09-27T07:47:54.272Z,26.12
2023-09-27T07:48:56.162Z,26.06
2023-09-27T07:49:57.900Z,26.09
2023-09-27T07:51:00.244Z,26.06
2023-09-27T07:52:01.963Z,25.97
2023-09-27T07:53:07.656Z,26.04
2023-09-27T07:54:09.926Z,26.01
2023-09-27T07:55:13.380Z,25.98
2023-09-27T07:56:23.507Z,26.07
2023-09-27T07:57:25.576Z,25.85
2023-09-27T07:58:27.286Z,25.93
2023-09-27T07:59:29.709Z,25.86
2023-09-27T08:00:31.651Z,26.01
2023-09-27T08:01:34.552Z,26.09
2023-09-27T08:02:36.360Z,25.93
2023-09-27T08:03:39.858Z,26.04
2023-09-27T08:04:41.907Z,26.05
2023-09-27T08:05:45.003Z,26.12
2023-09-27T08:06:47.738Z,26.07
2023-09-27T08:07:50.232Z,26.16
2023-09-27T08:08:53.538Z,26.23
2023-09-27T08:10:00.915Z,26.33
2023-09-27T08:11:08.213Z,26.50
2023-09-27T08:12:09.832Z,26.54
2023-09-27T08:13:13.087Z,26.34
2023-09-27T08:14:17.373Z,26.48
2023-09-27T08:15:19.517Z,26.48
2023-09-27T08:16:21.484Z,26.50
2023-09-27T08:17:23.191Z,26.38
2023-09-27T08:18:26.807Z,26.46
2023-09-27T08:19:28.545Z,26.57
2023-09-27T08:20:30.243Z,26.69
2023-09-27T08:21:31.936Z,26.75
2023-09-27T08:22:37.141Z,26.79
2023-09-27T08:23:38.975Z,26.71
2023-09-27T08:24:40.681Z,26.82
2023-09-27T08:25:42.407Z,26.82
2023-09-27T08:26:46.207Z,26.81
2023-09-27T08:27:51.989Z,26.80
2023-09-27T08:28:53.928Z,26.80
2023-09-27T08:29:55.946Z,26.61
2023-09-27T08:31:01.356Z,26.67
2023-09-27T08:32:03.300Z,26.71
2023-09-27T08:33:05.861Z,26.74
2023-09-27T08:34:07.567Z,26.77
2023-09-27T08:35:09.761Z,26.81
2023-09-27T08:36:12.403Z,26.90
2023-09-27T08:37:14.131Z,26.64
2023-09-27T08:38:15.881Z,26.74
2023-09-27T08:39:17.591Z,26.75
2023-09-27T08:40:19.413Z,26.65
2023-09-27T08:41:24.273Z,26.71
2023-09-27T08:42:27.207Z,26.65
2023-09-27T08:43:30.669Z,26.71
2023-09-27T08:44:33.941Z,26.70
2023-09-27T08:45:39.554Z,26.76
2023-09-27T08:46:41.801Z,26.79
2023-09-27T08:47:46.305Z,26.84
2023-09-27T08:48:49.918Z,26.78
2023-09-27T08:49:52.266Z,26.90
2023-09-27T08:50:56.064Z,26.94
2023-09-27T08:51:59.031Z,26.96
2023-09-27T08:53:00.775Z,26.97
2023-09-27T08:54:02.606Z,26.95
2023-09-27T08:55:05.141Z,26.93
2023-09-27T08:56:07.807Z,26.89
2023-09-27T08:57:10.673Z,26.98
2023-09-27T08:58:14.992Z,27.06
2023-09-27T08:59:16.946Z,26.98
2023-09-27T09:00:27.585Z,26.99
2023-09-27T09:01:29.925Z,27.05
2023-09-27T09:02:31.737Z,27.04
2023-09-27T09:03:34.233Z,27.12
2023-09-27T09:04:36.842Z,27.04
2023-09-27T09:05:39.885Z,27.01
2023-09-27T09:06:41.983Z,27.05
2023-09-27T09:07:46.267Z,27.08
2023-09-27T09:08:48.289Z,27.15
2023-09-27T09:09:50.053Z,27.17
2023-09-27T09:10:54.583Z,27.24
2023-09-27T09:12:01.397Z,27.25
2023-09-27T09:13:05.033Z,27.26
2023-09-27T09:14:06.872Z,27.30
2023-09-27T09:15:16.867Z,27.35
2023-09-27T09:16:24.751Z,27.32
2023-09-27T09:17:35.688Z,27.28
2023-09-27T09:18:40.902Z,27.32
2023-09-27T09:19:45.518Z,27.33
2023-09-27T09:20:56.124Z,27.28
2023-09-27T09:22:01.508Z,27.27
2023-09-27T09:23:13.828Z,27.23
2023-09-27T09:24:21.823Z,27.20
2023-09-27T09:25:26.631Z,27.32
2023-09-27T09:26:30.840Z,27.16
2023-09-27T09:27:34.191Z,27.17
2023-09-27T09:28:37.657Z,27.22
2023-09-27T09:29:53.739Z,27.08
2023-09-27T09:30:55.461Z,27.28
2023-09-27T09:31:59.808Z,27.35
2023-09-27T09:33:01.598Z,27.38
2023-09-27T09:34:04.566Z,27.36
2023-09-27T09:35:09.961Z,27.40
2023-09-27T09:36:11.670Z,27.44
2023-09-27T09:37:24.705Z,27.35
2023-09-27T09:38:30.358Z,27.44
2023-09-27T09:39:32.376Z,27.49
2023-09-27T09:40:35.416Z,27.49
2023-09-27T09:41:53.923Z,27.41
2023-09-27T09:42:59.740Z,27.52
2023-09-27T09:44:19.356Z,27.50
2023-09-27T09:45:21.428Z,27.44
2023-09-27T09:46:25.483Z,27.41
2023-09-27T09:47:29.257Z,27.48
2023-09-27T09:48:33.310Z,27.45
2023-09-27T09:49:36.241Z,27.50
2023-09-27T09:50:37.918Z,27.53
2023-09-27T09:51:42.879Z,27.58
2023-09-27T09:52:52.973Z,27.58
2023-09-27T09:53:55.953Z,27.50
2023-09-27T09:55:18.024Z,27.53
2023-09-27T09:57:44.860Z,27.53
2023-09-27T09:59:06.101Z,27.53
2023-09-27T10:00:19.840Z,27.58
2023-09-27T10:01:23.164Z,27.47
2023-09-27T10:02:28.833Z,27.53
2023-09-27T10:03:35.185Z,27.59
2023-09-27T10:04:38.414Z,27.55
2023-09-27T10:05:41.116Z,27.58
2023-09-27T10:06:49.313Z,27.60
2023-09-27T10:07:52.549Z,27.45
2023-09-27T10:08:55.037Z,27.40
2023-09-27T10:09:58.538Z,27.37
2023-09-27T10:11:06.963Z,27.42
2023-09-27T10:12:11.692Z,27.49
2023-09-27T10:13:14.926Z,27.44
2023-09-27T10:14:19.114Z,27.51
2023-09-27T10:15:23.393Z,27.56
2023-09-27T10:16:25.708Z,27.58
2023-09-27T10:17:28.017Z,27.55
2023-09-27T10:18:31.178Z,27.49
2023-09-27T10:19:32.913Z,27.55
2023-09-27T10:20:34.611Z,27.62
2023-09-27T10:21:47.573Z,27.56
2023-09-27T10:22:50.332Z,27.61
2023-09-27T10:23:54.490Z,27.66
2023-09-27T10:24:56.128Z,27.71
2023-09-27T10:26:17.967Z,27.63
2023-09-27T10:27:20.126Z,27.72
2023-09-27T10:28:21.756Z,27.79
2023-09-27T10:29:23.922Z,27.74
2023-09-27T10:30:25.990Z,27.77
2023-09-27T10:31:31.407Z,27.78
2023-09-27T10:32:33.140Z,27.80
2023-09-27T10:33:35.795Z,27.79
2023-09-27T10:34:41.393Z,27.78
2023-09-27T10:35:48.350Z,27.78
2023-09-27T10:36:59.573Z,27.84
2023-09-27T10:38:10.587Z,27.84
2023-09-27T10:39:12.408Z,27.85
2023-09-27T10:40:22.127Z,27.87
2023-09-27T10:41:33.532Z,27.88
2023-09-27T10:42:44.079Z,27.92
2023-09-27T10:43:47.404Z,27.96
2023-09-27T10:44:51.458Z,27.94
2023-09-27T10:45:57.305Z,27.91
2023-09-27T10:47:02.235Z,27.92
2023-09-27T10:48:20.387Z,27.84
2023-09-27T10:49:26.999Z,27.89
2023-09-27T10:50:30.980Z,27.92
2023-09-27T10:51:33.227Z,27.90
2023-09-27T10:52:34.918Z,27.84
2023-09-27T10:53:36.543Z,27.83
2023-09-27T10:54:40.039Z,27.74
2023-09-27T10:55:42.025Z,27.74
2023-09-27T10:56:46.123Z,27.78
2023-09-27T10:57:47.900Z,27.73
2023-09-27T10:58:53.279Z,27.75
2023-09-27T10:59:55.650Z,27.85
2023-09-27T11:01:05.953Z,27.90
2023-09-27T11:02:08.306Z,27.95
2023-09-27T11:03:20.165Z,27.90
2023-09-27T11:04:24.198Z,27.83
2023-09-27T11:05:27.156Z,27.80
2023-09-27T11:06:32.623Z,27.84
2023-09-27T11:07:48.471Z,27.80
2023-09-27T11:08:50.191Z,27.85
2023-09-27T11:09:53.789Z,27.85
2023-09-27T11:10:58.139Z,27.88
2023-09-27T11:12:00.506Z,27.91
2023-09-27T11:13:13.881Z,27.89
2023-09-27T11:14:31.154Z,27.92
2023-09-27T11:15:32.863Z,27.90
2023-09-27T11:16:34.729Z,27.87
2023-09-27T11:17:36.543Z,27.86
2023-09-27T11:18:47.815Z,27.85
2023-09-27T11:19:50.442Z,27.92
2023-09-27T11:20:52.167Z,27.92
2023-09-27T11:21:53.899Z,27.98
2023-09-27T11:22:59.883Z,27.93
2023-09-27T11:24:04.586Z,27.96
2023-09-27T11:25:27.399Z,27.92
2023-09-27T11:26:33.110Z,27.99
2023-09-27T11:27:34.927Z,28.02
2023-09-27T11:28:36.628Z,28.02
2023-09-27T11:29:38.763Z,28.03
2023-09-27T11:30:40.431Z,28.01
2023-09-27T11:31:42.165Z,28.02
2023-09-27T11:32:53.244Z,27.98
2023-09-27T11:34:20.618Z,27.86
2023-09-27T11:35:22.530Z,27.89
2023-09-27T11:36:24.286Z,27.87
2023-09-27T11:37:27.151Z,27.86
2023-09-27T11:38:28.893Z,27.88
2023-09-27T11:39:51.909Z,27.85
2023-09-27T11:40:55.207Z,27.90
2023-09-27T11:42:01.666Z,27.87
2023-09-27T11:43:04.218Z,27.91
2023-09-27T11:44:19.433Z,27.87
2023-09-27T11:45:21.193Z,27.79
2023-09-27T11:46:29.547Z,27.74
2023-09-27T11:47:33.718Z,27.76
2023-09-27T11:48:36.137Z,27.78
2023-09-27T11:49:38.126Z,27.87
2023-09-27T11:50:39.886Z,27.91
2023-09-27T11:51:41.620Z,27.93
2023-09-27T11:52:48.090Z,27.93
2023-09-27T11:53:49.940Z,27.91
2023-09-27T11:54:54.339Z,27.91
2023-09-27T11:55:56.758Z,27.88
2023-09-27T11:56:59.073Z,27.88
2023-09-27T11:58:01.370Z,27.83
2023-09-27T11:59:07.137Z,27.82
2023-09-27T12:00:10.054Z,27.77
2023-09-27T12:01:13.051Z,27.79
2023-09-27T12:02:28.244Z,27.80
2023-09-27T12:03:32.801Z,27.88
2023-09-27T12:04:35.106Z,27.94
2023-09-27T12:05:38.970Z,27.91
2023-09-27T12:06:41.281Z,27.81
2023-09-27T12:07:44.998Z,27.78
2023-09-27T12:08:47.118Z,27.79
2023-09-27T12:09:48.848Z,27.70
2023-09-27T12:10:50.456Z,27.78
2023-09-27T12:11:52.219Z,27.86
2023-09-27T12:12:55.617Z,27.86
2023-09-27T12:13:57.226Z,27.65
2023-09-27T12:14:58.851Z,27.68
2023-09-27T12:16:00.533Z,27.73
2023-09-27T12:17:02.255Z,27.80
2023-09-27T12:18:04.582Z,27.84
2023-09-27T12:19:06.458Z,27.90
2023-09-27T12:20:15.740Z,27.86
2023-09-27T12:21:25.214Z,27.95
2023-09-27T12:22:29.540Z,27.93
2023-09-27T12:23:31.557Z,27.95
2023-09-27T12:24:33.208Z,27.96
2023-09-27T12:25:35.197Z,27.97
2023-09-27T12:26:37.750Z,27.92
2023-09-27T12:27:39.597Z,27.91
2023-09-27T12:28:42.406Z,27.93
2023-09-27T12:29:44.164Z,27.98
2023-09-27T12:30:45.890Z,27.97
2023-09-27T12:31:47.571Z,27.99
2023-09-27T12:32:49.450Z,28.02
2023-09-27T12:33:51.364Z,28.04
2023-09-27T12:34:53.740Z,28.01
2023-09-27T12:35:55.597Z,27.96
2023-09-27T12:36:57.317Z,27.96
2023-09-27T12:38:00.690Z,27.98
2023-09-27T12:39:03.736Z,27.96
2023-09-27T12:40:05.998Z,27.96
2023-09-27T12:41:11.108Z,28.02
2023-09-27T12:42:14.980Z,28.04
2023-09-27T12:43:22.912Z,28.14
2023-09-27T12:44:24.917Z,28.15
2023-09-27T12:45:27.034Z,28.20
2023-09-27T12:46:30.265Z,28.24
2023-09-27T12:47:35.587Z,28.23
2023-09-27T12:48:38.511Z,28.28
2023-09-27T12:49:45.125Z,28.32
2023-09-27T12:50:47.223Z,28.35
2023-09-27T12:51:52.250Z,28.33
2023-09-27T12:52:56.024Z,28.35
2023-09-27T12:53:58.118Z,28.36
2023-09-27T12:55:03.771Z,28.27
2023-09-27T12:56:07.588Z,28.25
2023-09-27T12:57:09.737Z,28.26
2023-09-27T12:58:13.933Z,28.22
2023-09-27T12:59:16.320Z,28.27
2023-09-27T13:00:19.176Z,27.81
2023-09-27T13:01:22.018Z,27.76
2023-09-27T13:02:24.273Z,27.68
2023-09-27T13:03:26.912Z,27.58
2023-09-27T13:04:29.336Z,27.61
2023-09-27T13:05:31.784Z,27.55
2023-09-27T13:06:34.083Z,27.38
2023-09-27T13:07:36.175Z,27.32
2023-09-27T13:08:38.340Z,27.17
2023-09-27T13:09:40.945Z,27.17
2023-09-27T13:10:42.942Z,27.40
2023-09-27T13:11:48.165Z,27.47
2023-09-27T13:12:50.604Z,27.02
2023-09-27T13:13:52.861Z,27.17
2023-09-27T13:14:57.779Z,27.31
2023-09-27T13:16:05.713Z,27.15
2023-09-27T13:17:08.098Z,27.22
2023-09-27T13:18:10.309Z,27.28
2023-09-27T13:19:12.109Z,27.28
2023-09-27T13:20:13.845Z,27.38
2023-09-27T13:21:16.154Z,27.36
2023-09-27T13:22:18.948Z,27.40
2023-09-27T13:23:20.821Z,27.38
2023-09-27T13:24:22.490Z,27.41
2023-09-27T13:25:24.222Z,27.34
2023-09-27T13:26:27.260Z,27.32
2023-09-27T13:27:29.151Z,27.15
2023-09-27T13:28:31.128Z,26.85
2023-09-27T13:29:32.843Z,26.96
2023-09-27T13:30:36.401Z,26.85
2023-09-27T13:31:38.468Z,26.94
2023-09-27T13:32:40.241Z,26.81
2023-09-27T13:33:46.407Z,26.85
2023-09-27T13:34:50.674Z,26.68
2023-09-27T13:35:53.068Z,26.97
2023-09-27T13:36:54.838Z,27.06